createdAt,value
2024-01-08T00:00:30.108Z,3.06
2024-01-08T00:03:34.288Z,2.74
2024-01-08T00:06:38.296Z,2.99
2024-01-08T00:09:42.461Z,2.40
2024-01-08T00:12:46.525Z,2.04
2024-01-08T00:15:50.589Z,3.04
2024-01-08T00:18:54.797Z,3.38
2024-01-08T00:21:58.862Z,3.31
2024-01-08T00:25:08.275Z,2.60
2024-01-08T00:28:12.170Z,2.28
2024-01-08T00:31:16.711Z,2.18
2024-01-08T00:34:21.821Z,2.34
2024-01-08T00:37:26.190Z,2.50
2024-01-08T00:40:31.074Z,2.39
2024-01-08T00:43:35.489Z,2.09
2024-01-08T00:46:39.776Z,2.13
2024-01-08T00:49:43.868Z,1.75
2024-01-08T00:52:48.162Z,1.67
2024-01-08T00:55:52.400Z,1.82
2024-01-08T00:58:57.478Z,2.14
2024-01-08T01:02:02.491Z,2.36
2024-01-08T01:05:07.523Z,2.28
2024-01-08T01:08:11.796Z,2.85
2024-01-08T01:11:16.867Z,2.66
2024-01-08T01:14:20.771Z,3.22
2024-01-08T01:17:25.177Z,2.76
2024-01-08T01:20:29.654Z,3.22
2024-01-08T01:23:33.984Z,3.64
2024-01-08T01:26:38.429Z,3.03
2024-01-08T01:29:43.285Z,3.17
2024-01-08T01:32:47.743Z,2.88
2024-01-08T01:35:52.259Z,3.31
2024-01-08T01:38:56.686Z,3.19
2024-01-08T01:42:00.729Z,2.92
2024-01-08T01:45:07.059Z,2.44
2024-01-08T01:48:11.646Z,3.13
2024-01-08T01:51:19.428Z,2.99
2024-01-08T01:54:24.719Z,2.88
2024-01-08T01:57:29.171Z,2.69
2024-01-08T02:00:34.233Z,2.76
2024-01-08T02:03:38.533Z,3.14
2024-01-08T02:06:44.869Z,2.87
2024-01-08T02:09:48.902Z,3.35
2024-01-08T02:12:53.187Z,2.18
2024-01-08T02:15:57.550Z,3.46
2024-01-08T02:19:02.487Z,3.53
2024-01-08T02:22:06.156Z,3.94
2024-01-08T02:25:11.724Z,3.80
2024-01-08T02:28:16.090Z,2.99
2024-01-08T02:31:21.165Z,2.73
2024-01-08T02:34:26.610Z,3.23
2024-01-08T02:37:30.702Z,3.40
2024-01-08T02:40:35.548Z,3.46
2024-01-08T02:43:40.275Z,3.09
2024-01-08T02:46:47.190Z,3.25
2024-01-08T02:49:51.415Z,3.00
2024-01-08T02:52:55.922Z,3.15
2024-01-08T02:55:59.998Z,3.25
2024-01-08T02:59:07.720Z,3.14
2024-01-08T03:02:12.225Z,3.09
2024-01-08T03:05:19.390Z,3.44
2024-01-08T03:08:23.676Z,3.31
2024-01-08T03:11:30.713Z,2.77
2024-01-08T03:14:35.390Z,2.91
2024-01-08T03:17:39.782Z,3.50
2024-01-08T03:20:44.157Z,3.41
2024-01-08T03:23:48.237Z,2.89
2024-01-08T03:26:52.470Z,2.90
2024-01-08T03:29:56.715Z,3.18
2024-01-08T03:33:01.215Z,2.84
2024-01-08T03:36:10.166Z,2.16
2024-01-08T03:39:18.309Z,3.15
2024-01-08T03:42:22.368Z,2.85
2024-01-08T03:45:26.197Z,3.02
2024-01-08T03:48:30.990Z,3.20
2024-01-08T03:51:36.855Z,2.56
2024-01-08T03:54:40.903Z,2.90
2024-01-08T03:57:45.129Z,3.38
2024-01-08T04:00:49.017Z,2.80
2024-01-08T04:03:56.286Z,2.73
2024-01-08T04:07:00.749Z,2.36
2024-01-08T04:10:09.039Z,3.07
2024-01-08T04:13:13.085Z,2.53
2024-01-08T04:16:17.473Z,2.76
2024-01-08T04:19:21.582Z,2.55
2024-01-08T04:22:25.816Z,2.33
2024-01-08T04:25:30.079Z,2.50
2024-01-08T04:28:34.432Z,3.01
2024-01-08T04:31:38.844Z,3.20
2024-01-08T04:34:43.160Z,3.07
2024-01-08T04:37:48.965Z,3.11
2024-01-08T04:40:53.052Z,2.98
2024-01-08T04:43:57.390Z,2.94
2024-01-08T04:47:01.614Z,2.96
2024-01-08T04:50:06.736Z,3.12
2024-01-08T04:53:10.611Z,2.67
2024-01-08T04:56:22.300Z,2.42
2024-01-08T04:59:26.395Z,2.41
2024-01-08T05:02:32.905Z,2.50
2024-01-08T05:05:37.387Z,2.93
2024-01-08T05:08:41.736Z,2.89
2024-01-08T05:11:47.743Z,2.51
2024-01-08T05:14:52.278Z,2.90
2024-01-08T05:17:56.988Z,2.91
2024-01-08T05:21:01.051Z,3.02
2024-01-08T05:24:06.192Z,3.21
2024-01-08T05:27:10.169Z,3.46
2024-01-08T05:30:14.546Z,3.41
2024-01-08T05:33:18.802Z,3.65
2024-01-08T05:36:22.937Z,3.40
2024-01-08T05:39:29.634Z,2.91
2024-01-08T05:42:33.801Z,2.65
2024-01-08T05:45:38.409Z,2.79
2024-01-08T05:48:42.880Z,1.99
2024-01-08T05:51:47.288Z,2.53
2024-01-08T05:54:51.388Z,2.28
2024-01-08T05:57:55.655Z,2.59
2024-01-08T06:01:00.347Z,2.64
2024-01-08T06:04:05.391Z,2.21
2024-01-08T06:07:09.381Z,2.58
2024-01-08T06:10:13.575Z,1.76
2024-01-08T06:13:17.856Z,2.32
2024-01-08T06:16:21.866Z,2.78
2024-01-08T06:19:26.267Z,2.58
2024-01-08T06:22:30.457Z,2.91
2024-01-08T06:25:34.551Z,2.83
2024-01-08T06:28:38.882Z,2.58
2024-01-08T06:31:44.167Z,2.96
2024-01-08T06:34:48.331Z,2.24
2024-01-08T06:37:52.398Z,2.18
2024-01-08T06:40:56.719Z,2.27
2024-01-08T06:44:01.403Z,2.36
2024-01-08T06:47:05.840Z,2.34
2024-01-08T06:50:10.441Z,2.93
2024-01-08T06:53:14.642Z,2.77
2024-01-08T06:56:19.123Z,2.44
2024-01-08T06:59:23.387Z,2.18
2024-01-08T07:02:27.406Z,2.59
2024-01-08T07:05:31.750Z,1.92
2024-01-08T07:08:36.094Z,2.44
2024-01-08T07:11:39.994Z,2.50
2024-01-08T07:14:47.246Z,2.22
2024-01-08T07:17:51.311Z,2.45
2024-01-08T07:20:57.088Z,2.80
2024-01-08T07:24:01.254Z,2.06
2024-01-08T07:27:05.812Z,2.89
2024-01-08T07:30:10.807Z,3.04
2024-01-08T07:33:14.967Z,2.42
2024-01-08T07:36:19.421Z,2.76
2024-01-08T07:39:23.275Z,2.43
2024-01-08T07:42:27.330Z,2.79
2024-01-08T07:45:31.413Z,2.43
2024-01-08T07:48:36.251Z,2.37
2024-01-08T07:51:40.742Z,2.82
2024-01-08T07:54:44.833Z,2.74
2024-01-08T07:57:49.182Z,3.24
2024-01-08T08:00:53.367Z,2.63
2024-01-08T08:04:03.589Z,2.23
2024-01-08T08:07:07.891Z,2.41
2024-01-08T08:10:11.953Z,2.84
2024-01-08T08:13:17.318Z,2.99
2024-01-08T08:16:23.382Z,2.73
2024-01-08T08:19:29.546Z,2.31
2024-01-08T08:22:33.781Z,2.16
2024-01-08T08:25:37.968Z,1.99
2024-01-08T08:28:41.980Z,1.70
2024-01-08T08:31:45.995Z,1.79
2024-01-08T08:34:50.327Z,1.21
2024-01-08T08:37:57.806Z,1.51
2024-01-08T08:41:01.959Z,2.01
2024-01-08T08:44:06.359Z,1.78
2024-01-08T08:47:10.463Z,1.75
2024-01-08T08:50:17.574Z,2.64
2024-01-08T08:53:21.881Z,2.17
2024-01-08T08:56:26.066Z,2.42
2024-01-08T08:59:29.990Z,1.91
2024-01-08T09:02:34.204Z,1.86
2024-01-08T09:05:43.590Z,1.79
2024-01-08T09:08:55.917Z,1.66
2024-01-08T09:11:59.952Z,1.81
2024-01-08T09:15:04.614Z,2.35
2024-01-08T09:18:08.932Z,2.52
2024-01-08T09:21:16.457Z,2.31
2024-01-08T09:24:20.480Z,3.17
2024-01-08T09:27:27.374Z,2.71
2024-01-08T09:30:31.730Z,3.61
2024-01-08T09:33:36.224Z,5.13
2024-01-08T09:36:41.186Z,7.52
2024-01-08T09:39:45.258Z,7.88
2024-01-08T09:42:53.790Z,8.63
2024-01-08T09:46:09.035Z,7.74
2024-01-08T09:49:13.665Z,8.07
2024-01-08T09:52:18.082Z,8.01
2024-01-08T09:55:22.709Z,7.88
2024-01-08T09:58:27.415Z,8.23
2024-01-08T10:01:31.866Z,9.27
2024-01-08T10:04:36.243Z,11.34
2024-01-08T10:07:40.443Z,10.56
2024-01-08T10:10:44.756Z,10.62
2024-01-08T10:13:49.082Z,11.43
2024-01-08T10:17:01.878Z,11.27
2024-01-08T10:20:09.756Z,11.65
2024-01-08T10:23:18.228Z,10.51
2024-01-08T10:26:23.305Z,11.38
2024-01-08T10:29:27.810Z,11.98
2024-01-08T10:32:32.502Z,12.79
2024-01-08T10:35:37.127Z,13.68
2024-01-08T10:38:41.429Z,15.74
2024-01-08T10:41:45.575Z,16.15
2024-01-08T10:44:50.412Z,16.48
2024-01-08T10:48:07.813Z,15.47
2024-01-08T10:51:16.411Z,16.04
2024-01-08T10:54:20.674Z,15.27
2024-01-08T10:57:43.176Z,15.34
2024-01-08T11:00:47.668Z,15.98
2024-01-08T11:03:52.068Z,14.70
2024-01-08T11:06:57.420Z,15.70
2024-01-08T11:10:04.594Z,15.69
2024-01-08T11:13:11.887Z,15.03
2024-01-08T11:16:21.916Z,16.17
2024-01-08T11:19:27.724Z,15.09
2024-01-08T11:22:31.849Z,13.33
2024-01-08T11:25:36.829Z,15.13
2024-01-08T11:28:42.094Z,13.40
2024-01-08T11:31:49.544Z,14.61
2024-01-08T11:35:05.103Z,14.61
2024-01-08T11:38:26.175Z,13.06
2024-01-08T11:41:30.421Z,13.87
2024-01-08T11:44:34.575Z,15.72
2024-01-08T11:47:39.994Z,16.86
2024-01-08T11:50:44.513Z,15.94
2024-01-08T11:53:51.540Z,15.33
2024-01-08T11:56:56.532Z,15.68
2024-01-08T12:00:03.756Z,18.77
2024-01-08T12:03:11.270Z,16.58
2024-01-08T12:06:15.744Z,15.55
2024-01-08T12:09:19.826Z,16.32
2024-01-08T12:12:26.748Z,15.46
2024-01-08T12:15:32.591Z,15.27
2024-01-08T12:18:37.070Z,15.47
2024-01-08T12:21:46.084Z,14.94
2024-01-08T12:24:56.263Z,14.13
2024-01-08T12:28:01.331Z,15.23
2024-01-08T12:31:07.149Z,17.05
2024-01-08T12:34:11.650Z,14.04
2024-01-08T12:37:17.638Z,14.20
2024-01-08T12:40:22.060Z,13.65
2024-01-08T12:43:26.269Z,9.35
2024-01-08T12:46:30.613Z,7.66
2024-01-08T12:49:35.730Z,6.26
2024-01-08T12:52:40.217Z,5.36
2024-01-08T12:55:44.500Z,3.82
2024-01-08T12:58:54.016Z,3.86
2024-01-08T13:01:58.118Z,3.41
2024-01-08T13:05:05.810Z,3.35
2024-01-08T13:08:10.276Z,3.77
2024-01-08T13:11:14.428Z,3.09
2024-01-08T13:14:19.402Z,3.11
2024-01-08T13:17:24.126Z,2.39
2024-01-08T13:20:30.424Z,2.51
2024-01-08T13:23:36.671Z,3.04
2024-01-08T13:26:41.556Z,2.79
2024-01-08T13:29:46.474Z,2.99
2024-01-08T13:32:53.766Z,2.56
2024-01-08T13:35:58.942Z,2.89
2024-01-08T13:39:06.886Z,3.10
2024-01-08T13:42:16.113Z,2.84
2024-01-08T13:45:20.202Z,2.50
2024-01-08T13:48:25.227Z,2.55
2024-01-08T13:51:29.732Z,2.18
2024-01-08T13:54:34.023Z,2.63
2024-01-08T13:57:39.113Z,2.04
2024-01-08T14:00:43.548Z,2.49
2024-01-08T14:03:47.832Z,1.87
2024-01-08T14:06:52.034Z,1.77
2024-01-08T14:09:56.346Z,1.66
2024-01-08T14:13:06.928Z,2.14
2024-01-08T14:16:10.927Z,1.84
2024-01-08T14:19:15.174Z,1.86
2024-01-08T14:22:19.884Z,1.83
2024-01-08T14:25:24.487Z,1.88
2024-01-08T14:28:28.544Z,1.66
2024-01-08T14:31:32.881Z,1.10
2024-01-08T14:34:38.656Z,1.00
2024-01-08T14:37:43.978Z,0.94
2024-01-08T14:40:49.882Z,1.43
2024-01-08T14:43:54.388Z,1.43
2024-01-08T14:46:58.973Z,1.28
2024-01-08T14:50:05.401Z,1.32
2024-01-08T14:53:09.807Z,1.36
2024-01-08T14:56:16.662Z,1.29
2024-01-08T14:59:23.754Z,0.90
2024-01-08T15:02:28.064Z,0.99
2024-01-08T15:05:32.424Z,0.60
2024-01-08T15:08:37.504Z,0.60
2024-01-08T15:11:42.188Z,0.70
2024-01-08T15:14:46.470Z,0.77
2024-01-08T15:17:50.699Z,0.89
2024-01-08T15:20:55.046Z,0.86
2024-01-08T15:23:58.996Z,0.50
2024-01-08T15:27:06.458Z,0.48
2024-01-08T15:30:15.067Z,0.79
2024-01-08T15:33:19.775Z,0.68
2024-01-08T15:36:23.686Z,0.78
2024-01-08T15:39:27.534Z,0.59
2024-01-08T15:42:32.220Z,0.71
2024-01-08T15:45:37.126Z,0.20
2024-01-08T15:48:41.527Z,0.06
2024-01-08T15:51:45.797Z,0.40
2024-01-08T15:54:49.916Z,0.49
2024-01-08T15:57:54.187Z,0.73
2024-01-08T16:00:58.418Z,0.85
2024-01-08T16:04:03.155Z,0.20
2024-01-08T16:07:09.662Z,0.22
2024-01-08T16:10:14.335Z,0.17
2024-01-08T16:13:18.394Z,-0.04
2024-01-08T16:16:24.026Z,-0.13
2024-01-08T16:19:28.639Z,-0.23
2024-01-08T16:22:33.784Z,0.09
2024-01-08T16:25:38.091Z,0.10
2024-01-08T16:28:42.550Z,0.24
2024-01-08T16:31:47.328Z,0.21
2024-01-08T16:34:55.941Z,0.16
2024-01-08T16:38:01.186Z,0.27
2024-01-08T16:41:05.949Z,-0.09
2024-01-08T16:44:15.738Z,-0.08
2024-01-08T16:47:22.905Z,0.19
2024-01-08T16:50:30.218Z,0.18
2024-01-08T16:53:37.271Z,0.42
2024-01-08T16:56:41.328Z,0.12
2024-01-08T16:59:51.023Z,0.16
2024-01-08T17:02:55.437Z,-0.06
2024-01-08T17:06:02.348Z,-0.36
2024-01-08T17:09:10.061Z,-0.08
2024-01-08T17:12:20.112Z,-0.12
2024-01-08T17:15:27.572Z,-0.21
2024-01-08T17:18:32.168Z,-0.45
2024-01-08T17:21:36.592Z,-0.06
2024-01-08T17:24:40.580Z,0.08
2024-01-08T17:27:44.811Z,-0.05
2024-01-08T17:30:49.925Z,-0.41
2024-01-08T17:33:58.639Z,-0.24
2024-01-08T17:37:03.478Z,-0.24
2024-01-08T17:40:08.661Z,-0.36
2024-01-08T17:43:12.760Z,-0.09
2024-01-08T17:46:16.751Z,-0.49
2024-01-08T17:49:21.862Z,-0.65
2024-01-08T17:52:26.319Z,-0.61
2024-01-08T17:55:30.727Z,-0.20
2024-01-08T17:58:37.447Z,0.08
2024-01-08T18:01:42.372Z,-0.07
2024-01-08T18:04:47.385Z,-0.39
2024-01-08T18:07:51.773Z,-0.76
2024-01-08T18:10:56.269Z,-0.32
2024-01-08T18:14:00.608Z,-0.41
2024-01-08T18:17:05.573Z,-0.45
2024-01-08T18:20:10.548Z,-0.38
2024-01-08T18:23:14.635Z,-0.23
2024-01-08T18:26:19.136Z,-0.62
2024-01-08T18:29:23.353Z,-0.65
2024-01-08T18:32:27.886Z,-0.20
2024-01-08T18:35:32.128Z,-0.24
2024-01-08T18:38:38.373Z,-0.62
2024-01-08T18:41:44.133Z,-0.82
2024-01-08T18:44:48.312Z,-0.31
2024-01-08T18:47:52.698Z,-0.33
2024-01-08T18:50:58.948Z,-0.67
2024-01-08T18:54:06.008Z,-0.51
2024-01-08T18:57:10.264Z,-0.53
2024-01-08T19:00:14.701Z,-0.69
2024-01-08T19:03:18.947Z,-0.05
2024-01-08T19:06:27.055Z,-0.11
2024-01-08T19:09:31.359Z,-0.62
2024-01-08T19:12:35.693Z,-0.74
2024-01-08T19:15:39.960Z,-0.70
2024-01-08T19:18:45.697Z,-0.73
2024-01-08T19:21:49.775Z,-0.63
2024-01-08T19:24:54.159Z,-0.20
2024-01-08T19:28:01.213Z,-0.57
2024-01-08T19:31:06.060Z,-0.33
2024-01-08T19:34:10.507Z,-0.28
2024-01-08T19:37:15.208Z,-0.50
2024-01-08T19:40:19.515Z,-0.48
2024-01-08T19:43:23.743Z,-0.89
2024-01-08T19:46:28.206Z,-0.92
2024-01-08T19:49:33.101Z,-0.39
2024-01-08T19:52:37.609Z,-0.71
2024-01-08T19:55:41.842Z,-0.44
2024-01-08T19:58:47.780Z,-0.67
2024-01-08T20:01:52.017Z,-0.60
2024-01-08T20:04:57.273Z,-0.39
2024-01-08T20:08:01.312Z,-0.95
2024-01-08T20:11:05.473Z,-0.80
2024-01-08T20:14:09.598Z,-0.99
2024-01-08T20:17:13.898Z,-1.17
2024-01-08T20:20:18.625Z,-0.87
2024-01-08T20:23:22.917Z,-0.92
2024-01-08T20:26:27.288Z,-0.78
2024-01-08T20:29:31.520Z,-0.79
2024-01-08T20:32:36.083Z,-0.78
2024-01-08T20:35:40.676Z,-0.54
2024-01-08T20:38:45.283Z,-0.83
2024-01-08T20:41:50.530Z,-0.63
2024-01-08T20:44:54.800Z,-1.02
2024-01-08T20:47:58.917Z,-0.70
2024-01-08T20:51:03.654Z,-1.11
2024-01-08T20:54:07.995Z,-1.61
2024-01-08T20:57:12.574Z,-1.21
2024-01-08T21:00:16.712Z,-0.90
2024-01-08T21:03:20.789Z,-0.67
2024-01-08T21:06:25.032Z,-0.92
2024-01-08T21:09:29.034Z,-0.80
2024-01-08T21:12:33.013Z,-1.46
2024-01-08T21:15:38.180Z,-1.44
2024-01-08T21:18:45.009Z,-0.97
2024-01-08T21:21:49.068Z,-0.96
2024-01-08T21:24:53.274Z,-1.38
2024-01-08T21:27:58.747Z,-2.14
2024-01-08T21:31:03.801Z,-1.52
2024-01-08T21:34:09.285Z,-1.11
2024-01-08T21:37:13.744Z,-1.31
2024-01-08T21:40:17.981Z,-0.48
2024-01-08T21:43:22.481Z,-1.03
2024-01-08T21:46:26.410Z,-0.78
2024-01-08T21:49:31.121Z,-0.91
2024-01-08T21:52:35.259Z,-0.95
2024-01-08T21:55:39.833Z,-1.03
2024-01-08T21:58:44.121Z,-0.91
2024-01-08T22:01:48.328Z,-1.34
2024-01-08T22:04:52.472Z,-1.22
2024-01-08T22:07:56.685Z,-1.43
2024-01-08T22:11:01.604Z,-1.17
2024-01-08T22:14:05.839Z,-0.97
2024-01-08T22:17:09.782Z,-1.17
2024-01-08T22:20:13.465Z,-1.06
2024-01-08T22:23:17.749Z,-1.14
2024-01-08T22:26:22.999Z,-1.06
2024-01-08T22:29:27.386Z,-1.34
2024-01-08T22:32:31.824Z,-1.09
2024-01-08T22:35:36.092Z,-1.42
2024-01-08T22:38:40.296Z,-1.56
2024-01-08T22:41:44.526Z,-1.12
2024-01-08T22:44:48.647Z,-1.18
2024-01-08T22:47:52.944Z,-1.36
2024-01-08T22:50:57.416Z,-1.31
2024-01-08T22:54:01.955Z,-1.59
2024-01-08T22:57:06.972Z,-1.07
2024-01-08T23:00:13.560Z,-1.21
2024-01-08T23:03:18.156Z,-1.43
2024-01-08T23:06:22.287Z,-1.44
2024-01-08T23:09:26.393Z,-1.27
2024-01-08T23:12:31.043Z,-1.11
2024-01-08T23:15:35.240Z,-1.17
2024-01-08T23:18:39.705Z,-1.55
2024-01-08T23:21:45.706Z,-1.07
2024-01-08T23:24:49.865Z,-1.43
2024-01-08T23:27:54.239Z,-1.19
2024-01-08T23:30:58.448Z,-1.11
2024-01-08T23:34:10.493Z,-1.56
2024-01-08T23:37:21.689Z,-1.78
2024-01-08T23:40:25.546Z,-1.49
2024-01-08T23:43:29.730Z,-1.60
2024-01-08T23:46:34.025Z,-1.10
2024-01-08T23:49:38.271Z,-1.03
2024-01-08T23:52:42.369Z,-1.21
2024-01-08T23:55:46.436Z,-2.03
2024-01-08T23:58:50.517Z,-1.43
